Time;durP1;ratioP1;P1;durP2;ratioP2;P2;SDS_P1;SDS_P2;PMS_P1;PMS_P2;Temp;Humidity;BMP_temperature;BMP_pressure;BME280_temperature;BME280_humidity;BME280_pressure;Samples;Min_cycle;Max_cycle;Signal;HPM_P1;HPM_P2
2022/06/27 00:00:09;;;;;;;3.20;2.20;;;22.30;99.90;;;;;;4847901;29;20121;-65
2022/06/27 00:02:40;;;;;;;6.80;4.93;;;22.30;99.90;;;;;;4849562;29;20053;-66
2022/06/27 00:05:10;;;;;;;5.28;3.30;;;22.30;99.90;;;;;;4856030;29;20568;-65
2022/06/27 00:07:38;;;;;;;3.75;2.22;;;22.30;99.90;;;;;;4855962;29;20462;-64
2022/06/27 00:10:07;;;;;;;5.90;2.63;;;22.30;99.90;;;;;;4849058;29;20042;-65
2022/06/27 00:12:34;;;;;;;4.20;2.60;;;22.20;99.90;;;;;;4847449;29;20057;-65
2022/06/27 00:15:03;;;;;;;4.10;2.50;;;22.20;99.90;;;;;;4858023;29;20045;-64
2022/06/27 00:17:30;;;;;;;3.25;2.25;;;22.20;99.90;;;;;;4850210;29;20049;-65
2022/06/27 00:19:58;;;;;;;3.35;2.22;;;22.20;99.90;;;;;;4868799;29;20050;-65
2022/06/27 00:22:27;;;;;;;7.03;2.47;;;22.10;99.90;;;;;;4849161;29;20408;-65
2022/06/27 00:24:54;;;;;;;3.92;2.08;;;22.10;99.90;;;;;;4854158;29;20592;-64
2022/06/27 00:27:21;;;;;;;5.03;2.55;;;22.10;99.90;;;;;;4850664;29;20053;-65
2022/06/27 00:29:49;;;;;;;3.90;2.47;;;22.10;99.90;;;;;;4857573;29;20050;-65
2022/06/27 00:32:17;;;;;;;3.45;2.38;;;22.10;99.90;;;;;;4846948;29;20041;-64
2022/06/27 00:34:45;;;;;;;4.20;2.80;;;22.10;99.90;;;;;;4847884;29;20076;-64
2022/06/27 00:37:13;;;;;;;3.60;2.67;;;22.00;99.90;;;;;;4868170;29;20466;-64
2022/06/27 00:39:40;;;;;;;4.30;2.53;;;22.00;99.90;;;;;;4849742;29;20052;-64
2022/06/27 00:42:08;;;;;;;5.20;2.20;;;22.00;99.90;;;;;;4839424;29;20053;-64
2022/06/27 00:44:42;;;;;;;5.15;2.42;;;22.00;99.90;;;;;;4850518;29;20050;-65
2022/06/27 00:47:14;;;;;;;4.60;2.45;;;22.00;99.90;;;;;;4858552;29;20497;-65
2022/06/27 00:49:42;;;;;;;7.20;2.63;;;22.00;99.90;;;;;;4873445;29;20477;-65
2022/06/27 00:52:12;;;;;;;5.35;2.83;;;22.00;99.90;;;;;;4859327;29;20053;-65
2022/06/27 00:54:41;;;;;;;6.72;2.63;;;22.00;99.90;;;;;;4851963;29;20041;-66
2022/06/27 00:57:11;;;;;;;7.35;3.30;;;22.10;99.90;;;;;;4854807;29;20472;-65
2022/06/27 00:59:39;;;;;;;5.45;3.88;;;22.10;99.90;;;;;;4846724;29;20198;-65
2022/06/27 01:02:07;;;;;;;4.55;2.95;;;22.00;99.90;;;;;;4854383;29;20132;-66
2022/06/27 01:04:36;;;;;;;5.30;3.00;;;22.00;99.90;;;;;;4864823;29;20137;-66
2022/06/27 01:07:06;;;;;;;4.07;2.80;;;22.00;99.90;;;;;;4848194;29;20046;-65
2022/06/27 01:09:41;;;;;;;3.55;2.40;;;22.00;99.90;;;;;;4833380;29;20045;-65
2022/06/27 01:12:09;;;;;;;4.63;2.72;;;22.00;99.90;;;;;;4839692;29;20050;-66
2022/06/27 01:14:36;;;;;;;4.97;2.72;;;22.00;99.90;;;;;;4840218;29;20505;-65
2022/06/27 01:17:05;;;;;;;4.45;2.72;;;22.00;99.90;;;;;;4849083;29;20050;-65
2022/06/27 01:19:33;;;;;;;3.28;2.33;;;22.00;99.90;;;;;;4848515;29;20524;-65
2022/06/27 01:22:08;;;;;;;4.65;2.80;;;21.90;99.90;;;;;;4873087;29;20078;-65
2022/06/27 01:24:36;;;;;;;3.80;2.53;;;21.90;99.90;;;;;;4855272;29;20097;-65
2022/06/27 01:27:06;;;;;;;4.45;2.50;;;21.90;99.90;;;;;;4844009;29;20058;-65
2022/06/27 01:29:34;;;;;;;3.88;2.58;;;21.80;99.90;;;;;;4867720;29;20057;-65
2022/06/27 01:32:04;;;;;;;3.95;2.83;;;21.70;99.90;;;;;;4840147;29;20078;-65
2022/06/27 01:34:32;;;;;;;4.18;2.90;;;21.80;99.90;;;;;;4858228;29;20037;-65
2022/06/27 01:37:00;;;;;;;3.97;2.50;;;21.80;99.90;;;;;;4855746;29;20050;-65
2022/06/27 01:39:28;;;;;;;5.38;2.90;;;21.80;99.90;;;;;;4854892;29;20069;-65
2022/06/27 01:42:00;;;;;;;3.92;2.90;;;21.70;99.90;;;;;;4850872;29;20089;-64
2022/06/27 01:44:30;;;;;;;4.97;3.38;;;21.70;99.90;;;;;;4838251;29;20046;-65
2022/06/27 01:47:03;;;;;;;5.20;2.97;;;21.70;99.90;;;;;;4840958;29;20056;-65
2022/06/27 01:49:32;;;;;;;4.25;2.70;;;21.60;99.90;;;;;;4855801;29;20524;-64
2022/06/27 01:52:01;;;;;;;5.00;3.17;;;21.60;99.90;;;;;;4825119;29;20049;-65
2022/06/27 01:54:32;;;;;;;5.45;2.85;;;21.60;99.90;;;;;;4856302;29;20049;-65
2022/06/27 01:57:00;;;;;;;6.07;2.90;;;21.60;99.90;;;;;;4856059;29;20116;-65
2022/06/27 01:59:29;;;;;;;4.82;2.88;;;21.60;99.90;;;;;;4840600;29;20041;-65
2022/06/27 02:02:00;;;;;;;4.35;2.92;;;21.50;99.90;;;;;;4843704;29;20501;-64
2022/06/27 02:04:29;;;;;;;5.00;3.13;;;21.40;99.90;;;;;;4853092;29;20574;-64
2022/06/27 02:06:58;;;;;;;4.65;3.03;;;21.40;99.90;;;;;;4857168;29;20057;-64
2022/06/27 02:09:26;;;;;;;5.97;3.00;;;21.20;99.90;;;;;;4856528;29;20097;-63
2022/06/27 02:11:55;;;;;;;4.18;2.92;;;21.10;99.90;;;;;;4870581;29;20148;-66
2022/06/27 02:14:28;;;;;;;5.68;3.10;;;21.10;99.90;;;;;;4852816;29;20428;-66
2022/06/27 02:16:55;;;;;;;5.30;3.13;;;21.20;99.90;;;;;;4830878;29;20041;-66
2022/06/27 02:19:23;;;;;;;3.47;2.72;;;21.20;99.90;;;;;;4844296;29;20047;-66
2022/06/27 02:21:50;;;;;;;4.72;2.50;;;21.40;99.90;;;;;;4845561;29;20049;-66
2022/06/27 02:24:17;;;;;;;4.90;2.55;;;21.40;99.90;;;;;;4857733;29;20059;-66
2022/06/27 02:26:49;;;;;;;3.25;2.35;;;21.40;99.90;;;;;;4840755;29;20129;-65
2022/06/27 02:29:16;;;;;;;3.53;2.42;;;21.50;99.90;;;;;;4856451;29;20065;-65
2022/06/27 02:31:48;;;;;;;4.55;2.28;;;21.50;99.90;;;;;;4828191;29;20049;-64
2022/06/27 02:34:17;;;;;;;4.13;2.22;;;21.60;99.90;;;;;;4857240;29;20060;-65
2022/06/27 02:36:47;;;;;;;6.18;2.70;;;21.60;99.90;;;;;;4855741;29;20049;-65
2022/06/27 02:39:24;;;;;;;3.58;2.30;;;21.70;99.90;;;;;;4849911;29;20076;-65
2022/06/27 02:41:55;;;;;;;3.88;2.60;;;21.70;99.90;;;;;;4820192;29;20489;-66
2022/06/27 02:44:26;;;;;;;6.97;2.80;;;21.60;99.90;;;;;;4850124;29;20058;-66
2022/06/27 02:46:54;;;;;;;8.07;3.50;;;21.40;99.90;;;;;;4848914;29;20050;-65
2022/06/27 02:49:22;;;;;;;4.90;3.90;;;21.30;99.90;;;;;;4846975;29;20048;-64
2022/06/27 02:52:25;;;;;;;7.15;4.43;;;21.10;99.90;;;;;;4855733;29;20094;-65
2022/06/27 02:55:01;;;;;;;7.43;4.07;;;21.00;99.90;;;;;;4854650;29;20493;-64
2022/06/27 02:57:47;;;;;;;8.70;4.63;;;20.80;99.90;;;;;;4853499;29;20038;-65
2022/06/27 03:00:15;;;;;;;7.85;5.20;;;20.60;99.90;;;;;;4833225;29;20505;-65
2022/06/27 03:02:43;;;;;;;8.60;5.38;;;20.50;99.90;;;;;;4848682;29;20057;-66
2022/06/27 03:05:33;;;;;;;9.75;5.20;;;20.30;99.90;;;;;;4846726;29;20057;-66
2022/06/27 03:08:01;;;;;;;10.77;5.78;;;20.20;99.90;;;;;;4834748;29;20049;-66
2022/06/27 03:10:28;;;;;;;9.45;6.30;;;20.00;99.90;;;;;;4866137;29;20061;-66
2022/06/27 03:12:55;;;;;;;8.93;6.28;;;19.90;99.90;;;;;;4838929;29;20045;-68
2022/06/27 03:15:23;;;;;;;9.18;6.90;;;19.90;99.90;;;;;;4840313;29;20129;-67
2022/06/27 03:17:53;;;;;;;9.13;7.35;;;19.90;99.90;;;;;;4838961;29;20041;-67
2022/06/27 03:20:25;;;;;;;8.85;7.22;;;19.80;99.90;;;;;;4856320;29;20420;-66
2022/06/27 03:22:59;;;;;;;8.45;6.85;;;19.80;99.90;;;;;;4839343;29;20057;-67
2022/06/27 03:25:28;;;;;;;8.38;7.15;;;19.80;99.90;;;;;;4840494;29;20069;-67
2022/06/27 03:27:57;;;;;;;8.45;7.35;;;19.80;99.90;;;;;;4853640;29;20610;-65
2022/06/27 03:30:24;;;;;;;10.10;7.35;;;19.80;99.90;;;;;;4870687;29;20416;-65
2022/06/27 03:32:52;;;;;;;9.27;7.72;;;19.80;99.90;;;;;;4852640;29;20136;-66
2022/06/27 03:35:22;;;;;;;8.43;7.45;;;19.70;99.90;;;;;;4838421;29;20122;-66
2022/06/27 03:37:50;;;;;;;9.95;7.60;;;19.60;99.90;;;;;;4846601;29;20533;-65
2022/06/27 03:40:18;;;;;;;9.48;8.02;;;19.60;99.90;;;;;;4851848;29;20128;-65
2022/06/27 03:42:50;;;;;;;10.75;7.57;;;19.60;99.90;;;;;;4855193;29;20068;-66
2022/06/27 03:45:18;;;;;;;9.18;7.50;;;19.60;99.90;;;;;;4839541;29;20093;-66
2022/06/27 03:47:51;;;;;;;9.38;7.55;;;19.60;99.90;;;;;;4857364;29;20045;-65
2022/06/27 03:50:31;;;;;;;12.63;9.15;;;19.70;99.90;;;;;;4860568;29;20049;-65
2022/06/27 03:52:59;;;;;;;11.02;8.85;;;19.60;99.90;;;;;;4843813;29;20124;-66
2022/06/27 03:55:30;;;;;;;9.43;8.30;;;19.60;99.90;;;;;;4856072;29;20104;-66
2022/06/27 03:57:58;;;;;;;12.02;8.43;;;19.60;99.90;;;;;;4842104;29;20049;-66
2022/06/27 04:00:32;;;;;;;8.45;6.88;;;19.80;99.90;;;;;;4856974;29;20089;-65
2022/06/27 04:03:02;;;;;;;10.00;7.25;;;19.80;99.90;;;;;;4857822;29;20101;-65
2022/06/27 04:05:44;;;;;;;9.52;7.60;;;19.90;99.90;;;;;;4858714;29;20072;-66
2022/06/27 04:08:12;;;;;;;9.10;8.10;;;19.90;99.90;;;;;;4837766;29;20147;-66
2022/06/27 04:10:41;;;;;;;9.55;7.78;;;19.90;99.90;;;;;;4855746;29;20546;-66
2022/06/27 04:13:08;;;;;;;9.13;7.45;;;19.90;99.90;;;;;;4854635;29;20094;-66
2022/06/27 04:15:54;;;;;;;8.50;7.05;;;19.90;99.90;;;;;;4871352;29;20061;-65
2022/06/27 04:18:40;;;;;;;9.00;7.28;;;19.90;99.90;;;;;;4850185;29;20567;-66
2022/06/27 04:21:07;;;;;;;8.93;7.82;;;20.00;99.90;;;;;;4859957;29;20093;-66
2022/06/27 04:23:51;;;;;;;9.73;6.95;;;20.00;99.90;;;;;;4850472;29;20053;-66
2022/06/27 04:26:26;;;;;;;8.68;7.20;;;20.00;99.90;;;;;;4841268;29;20140;-65
2022/06/27 04:28:54;;;;;;;9.20;7.13;;;19.90;99.90;;;;;;4849696;29;20049;-66
2022/06/27 04:31:22;;;;;;;8.63;6.90;;;20.00;99.90;;;;;;4858281;29;20072;-66
2022/06/27 04:33:49;;;;;;;8.63;7.60;;;20.00;99.90;;;;;;4858987;29;20137;-68
2022/06/27 04:36:17;;;;;;;8.70;7.32;;;20.00;99.90;;;;;;4872882;29;20524;-66
2022/06/27 04:38:44;;;;;;;9.65;7.07;;;20.00;99.90;;;;;;4873909;29;20524;-66
2022/06/27 04:41:30;;;;;;;10.98;7.95;;;20.00;99.90;;;;;;4859543;29;20042;-66
2022/06/27 04:43:57;;;;;;;10.35;6.53;;;20.20;99.90;;;;;;4830742;29;20714;-65
2022/06/27 04:46:25;;;;;;;10.15;6.95;;;20.30;99.90;;;;;;4842604;29;20545;-66
2022/06/27 04:49:29;;;;;;;7.70;6.63;;;20.40;99.90;;;;;;4800505;29;20080;-66
2022/06/27 04:51:59;;;;;;;7.90;6.50;;;20.60;99.90;;;;;;4781866;29;20444;-65
2022/06/27 04:54:26;;;;;;;7.70;5.82;;;20.80;99.90;;;;;;4790419;29;20043;-66
2022/06/27 04:56:54;;;;;;;9.05;6.20;;;21.00;99.90;;;;;;4778429;30;20618;-66
2022/06/27 04:59:22;;;;;;;7.78;6.43;;;21.20;99.90;;;;;;4806578;29;20108;-65
2022/06/27 05:01:59;;;;;;;6.55;5.78;;;21.30;99.90;;;;;;4783921;29;20530;-65
2022/06/27 05:04:28;;;;;;;8.77;5.60;;;21.50;99.90;;;;;;4788311;29;20082;-67
2022/06/27 05:06:56;;;;;;;8.73;6.15;;;21.60;99.90;;;;;;4798968;29;20060;-68
2022/06/27 05:09:24;;;;;;;7.05;5.55;;;21.70;99.90;;;;;;4799173;29;20569;-66
2022/06/27 05:11:53;;;;;;;8.27;5.40;;;21.70;99.90;;;;;;4786564;29;20222;-66
2022/06/27 05:14:22;;;;;;;9.02;5.32;;;21.90;99.90;;;;;;4796270;29;20074;-65
2022/06/27 05:16:54;;;;;;;7.65;5.63;;;22.10;99.90;;;;;;4801541;29;20108;-66
2022/06/27 05:19:26;;;;;;;8.95;5.32;;;22.30;99.90;;;;;;4796676;29;20527;-65
2022/06/27 05:21:53;;;;;;;6.45;4.57;;;22.30;99.90;;;;;;4786132;29;20062;-66
2022/06/27 05:24:23;;;;;;;7.65;5.30;;;22.30;99.90;;;;;;4833106;29;20572;-67
2022/06/27 05:26:50;;;;;;;6.90;5.60;;;22.40;99.90;;;;;;4856241;29;20064;-66
2022/06/27 05:29:18;;;;;;;7.57;5.82;;;22.40;99.90;;;;;;4856560;29;20228;-66
2022/06/27 05:31:45;;;;;;;11.15;6.93;;;22.40;99.90;;;;;;4843992;29;20080;-66
2022/06/27 05:34:14;;;;;;;12.13;9.38;;;22.30;99.90;;;;;;4849282;29;20050;-66
2022/06/27 05:36:42;;;;;;;10.73;8.68;;;22.40;99.90;;;;;;4834172;29;20045;-66
2022/06/27 05:39:10;;;;;;;9.07;7.78;;;22.40;99.90;;;;;;4844748;29;20425;-66
2022/06/27 05:41:37;;;;;;;7.72;6.55;;;22.40;99.90;;;;;;4844568;29;20053;-64
2022/06/27 05:44:09;;;;;;;8.17;6.47;;;22.40;99.90;;;;;;4840300;29;20045;-65
2022/06/27 05:46:37;;;;;;;7.68;5.72;;;22.30;99.90;;;;;;4863779;29;20079;-65
2022/06/27 05:49:11;;;;;;;6.97;5.40;;;22.20;99.90;;;;;;4841106;29;20053;-65
2022/06/27 05:51:47;;;;;;;6.60;5.30;;;22.20;99.90;;;;;;4853034;29;20065;-65
2022/06/27 05:54:15;;;;;;;7.50;5.22;;;22.20;99.90;;;;;;4870257;29;20041;-65
2022/06/27 05:56:42;;;;;;;5.97;4.88;;;22.20;99.90;;;;;;4855626;29;20133;-65
2022/06/27 05:59:10;;;;;;;6.70;5.35;;;22.30;99.90;;;;;;4855077;29;20050;-65
2022/06/27 06:01:40;;;;;;;9.95;4.68;;;22.30;99.90;;;;;;4835127;29;20129;-66
2022/06/27 06:04:08;;;;;;;6.85;4.30;;;22.30;99.90;;;;;;4850977;29;20130;-67
2022/06/27 06:06:38;;;;;;;5.43;4.00;;;22.80;99.90;;;;;;4867200;29;20584;-67
2022/06/27 06:09:06;;;;;;;6.90;5.15;;;22.90;99.90;;;;;;4854612;29;20058;-67
2022/06/27 06:11:33;;;;;;;5.93;4.32;;;23.10;99.90;;;;;;4851933;29;20146;-67
2022/06/27 06:14:02;;;;;;;5.22;4.50;;;23.30;99.90;;;;;;4854099;29;20054;-67
2022/06/27 06:16:30;;;;;;;6.53;4.38;;;23.40;99.90;;;;;;4866802;29;20037;-68
2022/06/27 06:18:59;;;;;;;11.27;4.60;;;23.10;99.90;;;;;;4852601;29;20110;-67
2022/06/27 06:21:27;;;;;;;5.90;3.60;;;23.20;99.90;;;;;;4869653;29;20048;-67
2022/06/27 06:23:55;;;;;;;5.95;4.28;;;23.40;99.90;;;;;;4849944;29;20049;-67
2022/06/27 06:26:23;;;;;;;6.75;4.88;;;23.60;99.90;;;;;;4860234;29;20062;-66
2022/06/27 06:28:50;;;;;;;8.13;4.80;;;23.60;99.90;;;;;;4833454;29;20713;-67
2022/06/27 06:31:24;;;;;;;7.68;4.72;;;23.70;99.90;;;;;;4850411;29;20050;-68
2022/06/27 06:33:56;;;;;;;8.70;5.22;;;23.80;99.90;;;;;;4853811;29;20049;-67
2022/06/27 06:36:24;;;;;;;7.07;4.50;;;23.90;99.90;;;;;;4840058;29;20085;-67
2022/06/27 06:38:52;;;;;;;6.93;4.60;;;23.80;99.90;;;;;;4853645;29;20052;-67
2022/06/27 06:41:21;;;;;;;8.45;5.00;;;23.80;99.90;;;;;;4856181;29;20512;-68
2022/06/27 06:43:49;;;;;;;8.38;4.90;;;24.00;99.90;;;;;;4853385;29;20049;-67
2022/06/27 06:46:55;;;;;;;5.78;4.97;;;23.90;99.90;;;;;;4852183;29;20050;-68
2022/06/27 06:49:36;;;;;;;;;;;24.10;99.90;;;;;;4840968;29;20420;-67
2022/06/27 06:52:03;;;;;;;6.32;4.68;;;24.10;99.90;;;;;;4852372;29;19935;-67
2022/06/27 06:54:31;;;;;;;6.40;4.65;;;24.20;99.90;;;;;;4854691;29;20448;-67
2022/06/27 06:56:58;;;;;;;7.63;5.45;;;24.20;99.90;;;;;;4869511;29;20565;-66
2022/06/27 06:59:26;;;;;;;7.45;6.00;;;24.40;99.90;;;;;;4856841;29;20111;-67
2022/06/27 07:01:53;;;;;;;5.97;4.70;;;24.60;99.90;;;;;;4844265;29;20123;-68
2022/06/27 07:04:21;;;;;;;6.05;5.10;;;24.70;99.90;;;;;;4856474;29;20049;-66
2022/06/27 07:06:49;;;;;;;8.57;5.05;;;24.80;99.90;;;;;;4850543;29;20046;-67
2022/06/27 07:09:16;;;;;;;6.78;4.53;;;24.80;99.90;;;;;;4841422;29;20053;-67
2022/06/27 07:11:45;;;;;;;7.75;4.80;;;24.70;99.90;;;;;;4847554;29;20042;-65
2022/06/27 07:14:13;;;;;;;6.10;4.70;;;24.80;99.90;;;;;;4854753;29;20041;-67
2022/06/27 07:16:42;;;;;;;7.00;4.70;;;24.90;99.90;;;;;;4852573;29;20047;-67
2022/06/27 07:19:10;;;;;;;9.65;4.55;;;24.90;99.90;;;;;;4838774;29;20046;-69
2022/06/27 07:21:38;;;;;;;5.47;4.40;;;25.10;99.90;;;;;;4855977;29;20053;-69
2022/06/27 07:24:08;;;;;;;8.65;4.88;;;25.30;99.90;;;;;;4855191;29;20067;-68
2022/06/27 07:26:36;;;;;;;10.95;4.82;;;25.30;99.90;;;;;;4856282;29;20049;-67
2022/06/27 07:29:04;;;;;;;7.15;4.30;;;25.50;99.90;;;;;;4854559;29;20054;-68
2022/06/27 07:31:32;;;;;;;7.00;5.40;;;25.70;99.90;;;;;;4856222;29;20081;-67
2022/06/27 07:34:02;;;;;;;10.05;5.38;;;25.70;99.90;;;;;;4842731;29;20058;-67
2022/06/27 07:36:32;;;;;;;7.18;4.65;;;25.50;99.90;;;;;;4869600;29;20420;-67
2022/06/27 07:38:59;;;;;;;9.27;4.72;;;25.30;99.90;;;;;;4846473;29;20094;-68
2022/06/27 07:41:32;;;;;;;5.90;4.68;;;25.20;99.90;;;;;;4841099;29;20046;-67
2022/06/27 07:44:01;;;;;;;5.78;4.65;;;25.40;99.90;;;;;;4846939;29;20547;-68
2022/06/27 07:46:28;;;;;;;6.88;4.60;;;25.50;99.90;;;;;;4851220;29;20054;-66
2022/06/27 07:48:56;;;;;;;9.05;4.78;;;25.30;99.90;;;;;;4840510;29;20103;-67
2022/06/27 07:51:23;;;;;;;7.13;4.15;;;25.40;99.90;;;;;;4844978;29;20466;-68
2022/06/27 07:53:51;;;;;;;7.85;5.03;;;25.50;99.90;;;;;;4837574;29;20078;-68
2022/06/27 07:56:20;;;;;;;5.57;4.93;;;25.50;99.90;;;;;;4853075;29;20528;-69
2022/06/27 07:59:10;;;;;;;6.65;5.25;;;25.40;99.90;;;;;;4839398;29;20520;-69
2022/06/27 08:01:39;;;;;;;8.88;5.40;;;25.10;99.90;;;;;;4849105;29;20160;-69
2022/06/27 08:04:08;;;;;;;9.55;5.43;;;24.90;99.90;;;;;;4854828;29;20500;-68
2022/06/27 08:06:35;;;;;;;8.13;5.38;;;25.10;99.90;;;;;;4853131;29;20049;-70
2022/06/27 08:09:06;;;;;;;6.78;5.47;;;25.20;99.90;;;;;;4837392;29;20061;-66
2022/06/27 08:11:40;;;;;;;6.85;5.57;;;25.00;99.90;;;;;;4850573;29;20504;-66
2022/06/27 08:14:11;;;;;;;8.70;6.10;;;25.00;99.90;;;;;;4843306;29;20057;-67
2022/06/27 08:16:40;;;;;;;7.90;7.10;;;25.00;99.90;;;;;;4855468;29;20433;-67
2022/06/27 08:19:09;;;;;;;8.02;6.47;;;25.10;99.90;;;;;;4838374;29;20054;-67
2022/06/27 08:21:38;;;;;;;9.43;6.55;;;24.80;99.90;;;;;;4852892;29;20152;-67
2022/06/27 08:24:07;;;;;;;8.73;6.28;;;24.70;99.90;;;;;;4851446;29;20535;-68
2022/06/27 08:26:36;;;;;;;9.20;6.07;;;24.60;99.90;;;;;;4851304;29;20045;-68
2022/06/27 08:29:05;;;;;;;6.93;6.13;;;24.60;99.90;;;;;;4853379;29;20379;-68
2022/06/27 08:31:33;;;;;;;7.00;6.30;;;24.60;99.90;;;;;;4850153;29;20050;-68
2022/06/27 08:34:02;;;;;;;8.07;5.72;;;24.70;99.90;;;;;;4849900;29;20065;-68
2022/06/27 08:36:31;;;;;;;5.93;5.32;;;24.70;99.90;;;;;;4859171;29;20045;-67
2022/06/27 08:39:07;;;;;;;6.35;5.75;;;24.90;99.90;;;;;;4858249;29;20046;-68
2022/06/27 08:41:35;;;;;;;7.07;5.40;;;24.90;99.90;;;;;;4852645;29;20044;-69
2022/06/27 08:44:04;;;;;;;6.38;4.82;;;25.10;99.90;;;;;;4839836;29;20505;-68
2022/06/27 08:46:33;;;;;;;7.55;6.32;;;25.30;99.90;;;;;;4853745;29;21574;-67
2022/06/27 08:49:02;;;;;;;7.00;5.88;;;25.40;99.90;;;;;;4856177;29;20045;-68
2022/06/27 08:51:31;;;;;;;6.90;6.18;;;25.50;99.90;;;;;;4852382;29;20425;-67
2022/06/27 08:53:59;;;;;;;9.15;6.05;;;25.40;99.90;;;;;;4858032;29;20531;-67
2022/06/27 08:56:29;;;;;;;7.32;6.20;;;25.60;99.90;;;;;;4859400;29;20052;-68
2022/06/27 08:58:59;;;;;;;10.95;6.63;;;25.40;99.90;;;;;;4854705;29;20046;-67
2022/06/27 09:01:27;;;;;;;8.05;5.90;;;25.40;99.90;;;;;;4858105;29;20084;-67
2022/06/27 09:04:01;;;;;;;7.03;6.32;;;25.60;99.90;;;;;;4847697;29;20429;-67
2022/06/27 09:06:34;;;;;;;8.48;6.18;;;25.30;99.90;;;;;;4857897;29;20077;-68
2022/06/27 09:09:08;;;;;;;7.28;5.88;;;25.20;99.90;;;;;;4851763;29;20049;-68
2022/06/27 09:11:43;;;;;;;7.95;6.65;;;25.10;99.90;;;;;;4848835;29;20057;-68
2022/06/27 09:14:39;;;;;;;9.55;6.03;;;24.70;99.90;;;;;;4840153;29;20041;-68
2022/06/27 09:17:12;;;;;;;7.30;5.38;;;24.80;99.90;;;;;;4850501;29;20046;-64
2022/06/27 09:19:48;;;;;;;8.68;5.70;;;25.00;99.90;;;;;;4841483;29;20531;-65
2022/06/27 09:22:17;;;;;;;8.35;5.38;;;24.80;99.90;;;;;;4857601;29;20049;-66
2022/06/27 09:25:05;;;;;;;7.97;4.93;;;24.80;99.90;;;;;;4858332;29;20081;-68
2022/06/27 09:27:40;;;;;;;6.07;4.60;;;25.00;99.90;;;;;;4844968;29;20076;-65
2022/06/27 09:30:21;;;;;;;5.13;4.30;;;25.20;99.90;;;;;;4855887;29;20053;-66
2022/06/27 09:32:51;;;;;;;7.03;4.53;;;25.10;99.90;;;;;;4839719;29;20058;-66
2022/06/27 09:35:29;;;;;;;7.05;4.90;;;24.80;99.90;;;;;;4840345;29;20607;-67
2022/06/27 09:37:58;;;;;;;6.93;4.65;;;24.90;99.90;;;;;;4852737;29;20076;-66
2022/06/27 09:40:28;;;;;;;5.28;4.72;;;25.10;99.90;;;;;;4855065;29;20064;-66
2022/06/27 09:43:04;;;;;;;8.77;4.35;;;25.20;99.90;;;;;;4860346;29;20042;-66
2022/06/27 09:45:33;;;;;;;5.43;4.38;;;25.30;99.90;;;;;;4864457;29;20568;-66
2022/06/27 09:48:03;;;;;;;5.10;4.22;;;25.60;99.90;;;;;;4856541;29;20058;-66
2022/06/27 09:50:33;;;;;;;8.95;4.05;;;25.40;99.90;;;;;;4847169;29;20057;-66
2022/06/27 09:53:01;;;;;;;5.80;4.22;;;25.60;99.90;;;;;;4857504;29;20176;-64
2022/06/27 09:55:29;;;;;;;5.90;3.38;;;25.70;99.90;;;;;;4829906;29;20412;-67
2022/06/27 09:57:57;;;;;;;6.18;3.97;;;25.80;99.90;;;;;;4852419;29;20445;-67
2022/06/27 10:00:25;;;;;;;7.80;3.83;;;25.40;99.90;;;;;;4842659;29;20072;-67
2022/06/27 10:02:58;;;;;;;7.53;3.33;;;25.70;99.90;;;;;;4851329;29;20065;-68
2022/06/27 10:05:26;;;;;;;5.03;3.38;;;25.60;99.90;;;;;;4856930;29;20113;-68
2022/06/27 10:08:02;;;;;;;5.75;3.33;;;25.70;99.90;;;;;;4852059;29;20505;-66
2022/06/27 10:10:31;;;;;;;6.97;3.47;;;25.60;99.90;;;;;;4843397;29;20664;-67
2022/06/27 10:13:01;;;;;;;4.57;3.10;;;25.70;99.90;;;;;;4856000;29;20057;-67
2022/06/27 10:15:33;;;;;;;5.38;3.30;;;25.80;99.90;;;;;;4839482;29;20053;-68
2022/06/27 10:18:04;;;;;;;;;;;25.60;99.90;;;;;;4858100;29;20111;-67
2022/06/27 10:20:39;;;;;;;3.70;2.35;;;25.40;99.90;;;;;;4852973;29;20458;-68
2022/06/27 10:23:13;;;;;;;5.50;3.45;;;25.30;99.90;;;;;;4852006;29;20072;-67
2022/06/27 10:25:44;;;;;;;4.38;2.78;;;25.30;99.90;;;;;;4848020;29;20050;-67
2022/06/27 10:28:12;;;;;;;6.60;2.97;;;25.40;99.90;;;;;;4869541;29;20192;-68
2022/06/27 10:30:48;;;;;;;6.57;2.70;;;25.70;99.90;;;;;;4849357;29;20049;-67
2022/06/27 10:33:28;;;;;;;7.75;2.42;;;25.80;99.90;;;;;;4843418;29;20065;-66
2022/06/27 10:35:56;;;;;;;5.13;2.55;;;25.50;99.90;;;;;;4856978;29;20953;-67
2022/06/27 10:38:43;;;;;;;4.70;2.28;;;25.40;99.90;;;;;;4852256;29;20093;-67
2022/06/27 10:41:31;;;;;;;4.22;1.90;;;25.70;99.90;;;;;;4855981;29;20080;-66
2022/06/27 10:44:03;;;;;;;4.25;2.58;;;25.70;99.90;;;;;;4848663;29;20556;-66
2022/06/27 10:46:30;;;;;;;4.57;2.50;;;26.00;99.90;;;;;;4840368;29;20117;-66
2022/06/27 10:48:58;;;;;;;4.78;2.05;;;25.90;99.90;;;;;;4870796;29;20493;-66
2022/06/27 10:51:30;;;;;;;3.80;2.40;;;26.00;99.90;;;;;;4844479;29;20090;-66
2022/06/27 10:54:04;;;;;;;5.25;2.88;;;26.10;99.90;;;;;;4862059;29;20148;-66
2022/06/27 10:56:31;;;;;;;3.42;1.85;;;26.30;99.90;;;;;;4856921;29;20128;-65
2022/06/27 10:59:06;;;;;;;4.07;1.67;;;26.20;99.90;;;;;;4855247;29;20045;-64
2022/06/27 11:01:34;;;;;;;3.60;1.83;;;26.30;99.90;;;;;;4846991;29;20052;-66
2022/06/27 11:04:01;;;;;;;3.67;1.80;;;26.50;99.90;;;;;;4867084;29;20058;-65
2022/06/27 11:06:28;;;;;;;4.60;1.70;;;26.50;99.90;;;;;;4846153;29;20708;-67
2022/06/27 11:08:56;;;;;;;2.35;1.40;;;26.50;99.90;;;;;;4854340;29;20110;-67
2022/06/27 11:11:27;;;;;;;3.00;1.80;;;26.90;99.90;;;;;;4846749;29;20049;-67
2022/06/27 11:13:57;;;;;;;3.95;1.33;;;27.00;99.90;;;;;;4843310;29;20057;-66
2022/06/27 11:16:28;;;;;;;4.07;1.55;;;27.50;99.90;;;;;;4841005;29;20045;-67
2022/06/27 11:20:04;;;;;;;1.90;1.20;;;27.40;99.90;;;;;;4839722;29;20097;-67
2022/06/27 11:21:53;;;;;;;2.70;1.33;;;27.70;99.90;;;;;;4846212;29;20136;-67
2022/06/27 11:24:21;;;;;;;4.90;1.60;;;27.80;99.90;;;;;;4853588;29;20053;-67
2022/06/27 11:26:49;;;;;;;4.60;1.23;;;28.10;99.90;;;;;;4864747;29;20045;-67
2022/06/27 11:32:08;;;;;;;3.75;1.10;;;29.00;99.90;;;;;;4850501;29;20474;-66
2022/06/27 11:34:43;;;;;;;3.10;1.08;;;29.20;99.90;;;;;;4838108;29;20050;-67
2022/06/27 11:37:14;;;;;;;1.98;0.90;;;29.20;99.90;;;;;;4854901;29;20500;-66
2022/06/27 11:39:55;;;;;;;2.05;1.10;;;29.20;99.90;;;;;;4851008;29;20084;-64
2022/06/27 11:42:28;;;;;;;4.00;1.35;;;28.90;99.90;;;;;;4847809;29;20049;-66
2022/06/27 11:45:13;;;;;;;4.10;1.13;;;29.00;99.90;;;;;;4825271;29;20226;-67
2022/06/27 11:47:43;;;;;;;7.65;1.58;;;29.60;99.90;;;;;;4851271;29;20050;-68
2022/06/27 11:50:17;;;;;;;4.55;1.27;;;29.80;99.90;;;;;;4841912;29;20060;-68
2022/06/27 11:52:49;;;;;;;1.98;1.08;;;29.40;99.90;;;;;;4850879;29;20057;-68
2022/06/27 11:55:24;;;;;;;2.40;1.23;;;29.60;99.90;;;;;;4841710;29;20110;-69
2022/06/27 11:57:54;;;;;;;4.45;1.58;;;29.70;99.90;;;;;;4856782;29;20145;-68
2022/06/27 12:00:27;;;;;;;3.17;1.48;;;29.80;99.90;;;;;;4851580;29;20136;-68
2022/06/27 12:03:10;;;;;;;3.63;1.20;;;29.90;99.90;;;;;;4856113;29;20057;-68
2022/06/27 12:05:39;;;;;;;3.92;1.27;;;29.80;99.90;;;;;;4856634;29;20571;-69
2022/06/27 12:08:12;;;;;;;3.75;1.30;;;29.40;99.90;;;;;;4844461;29;20054;-67
2022/06/27 12:10:46;;;;;;;4.60;1.02;;;29.50;99.90;;;;;;4852360;29;20049;-67
2022/06/27 12:13:16;;;;;;;3.50;1.63;;;29.50;99.90;;;;;;4848168;29;20644;-68
2022/06/27 12:15:46;;;;;;;4.93;1.65;;;29.60;99.90;;;;;;4844882;29;20192;-69
2022/06/27 12:18:14;;;;;;;4.38;1.42;;;29.50;99.90;;;;;;4856863;29;20432;-69
2022/06/27 12:20:44;;;;;;;2.72;1.20;;;29.30;99.90;;;;;;4844530;29;20046;-68
2022/06/27 12:23:11;;;;;;;5.18;1.50;;;29.60;99.90;;;;;;4849407;29;20049;-67
2022/06/27 12:25:38;;;;;;;4.07;1.77;;;29.60;99.90;;;;;;4852880;29;20073;-69
2022/06/27 12:28:08;;;;;;;3.17;1.65;;;29.80;99.90;;;;;;4840756;29;20548;-67
2022/06/27 12:30:36;;;;;;;4.13;1.70;;;29.90;99.90;;;;;;4841113;29;20417;-68
2022/06/27 12:33:05;;;;;;;3.78;1.70;;;29.50;99.90;;;;;;4841120;29;20058;-70
2022/06/27 12:35:33;;;;;;;4.57;1.70;;;28.70;99.90;;;;;;4859348;29;20515;-69
2022/06/27 12:38:02;;;;;;;4.18;2.00;;;28.50;99.90;;;;;;4847003;29;20046;-69
2022/06/27 12:40:30;;;;;;;4.30;2.15;;;28.60;99.90;;;;;;4844216;29;20423;-68
2022/06/27 12:43:06;;;;;;;3.35;2.08;;;28.80;99.90;;;;;;4850527;29;20050;-67
2022/06/27 12:45:35;;;;;;;4.30;2.20;;;29.10;99.90;;;;;;4827063;29;20132;-68
2022/06/27 12:48:08;;;;;;;5.07;2.33;;;29.60;99.90;;;;;;4849896;29;20458;-68
2022/06/27 12:50:36;;;;;;;4.00;2.33;;;30.20;99.90;;;;;;4857947;29;20045;-68
2022/06/27 12:53:04;;;;;;;6.32;2.63;;;30.50;99.90;;;;;;4836061;29;20045;-68
2022/06/27 12:55:31;;;;;;;4.22;2.70;;;30.00;99.90;;;;;;4861107;29;20052;-68
2022/06/27 12:57:59;;;;;;;4.10;2.70;;;29.70;99.90;;;;;;4857475;29;20045;-69
2022/06/27 13:00:26;;;;;;;5.18;2.75;;;30.10;99.90;;;;;;4857910;29;20106;-67
2022/06/27 13:02:53;;;;;;;6.18;2.45;;;30.00;99.90;;;;;;4858093;29;20056;-69
2022/06/27 13:05:31;;;;;;;4.38;2.70;;;30.50;99.90;;;;;;4851104;29;20124;-68
2022/06/27 13:07:59;;;;;;;4.00;2.60;;;30.30;99.90;;;;;;4853135;29;20133;-68